Time;durP1;ratioP1;P1;durP2;ratioP2;P2;SDS_P1;SDS_P2;PMS_P1;PMS_P2;Temp;Humidity;BMP_temperature;BMP_pressure;BME280_temperature;BME280_humidity;BME280_pressure;Samples;Min_cycle;Max_cycle;Signal;HPM_P1;HPM_P2
2022/09/28 00:00:46;;;;;;;0.40;0.40;;;;;;;9.29;85.30;99620.06;2114515;27;20506;-69
2022/09/28 00:01:48;;;;;;;0.30;0.30;;;;;;;9.28;85.10;99618.47;2114862;27;20578;-69
2022/09/28 00:02:51;;;;;;;0.40;0.40;;;;;;;9.29;85.51;99617.38;2114981;27;20099;-69
2022/09/28 00:03:57;;;;;;;0.30;0.30;;;;;;;9.30;85.27;99620.81;2113728;27;20118;-69
2022/09/28 00:04:59;;;;;;;0.30;0.30;;;;;;;9.28;86.18;99620.38;2114241;27;20707;-69
2022/09/28 00:06:03;;;;;;;0.40;0.40;;;;;;;9.29;84.62;99625.44;2113630;27;20054;-69
2022/09/28 00:07:05;;;;;;;0.40;0.40;;;;;;;9.28;85.07;99615.78;2113583;27;20055;-69
2022/09/28 00:08:08;;;;;;;0.40;0.40;;;;;;;9.29;85.23;99616.56;2114351;27;20046;-69
2022/09/28 00:09:09;;;;;;;0.40;0.40;;;;;;;9.30;84.83;99616.22;2113243;27;20483;-69
2022/09/28 00:10:14;;;;;;;0.40;0.40;;;;;;;9.31;86.00;99615.06;2104776;28;20056;-69
2022/09/28 00:11:19;;;;;;;0.40;0.40;;;;;;;9.29;85.55;99621.97;2100416;28;20588;-69
2022/09/28 00:12:22;;;;;;;0.30;0.30;;;;;;;9.29;86.01;99619.28;2106363;27;20044;-69
2022/09/28 00:13:24;;;;;;;0.40;0.40;;;;;;;9.31;86.43;99620.44;2106835;28;20055;-70
2022/09/28 00:14:27;;;;;;;0.43;0.43;;;;;;;9.31;85.55;99619.69;2107380;27;20067;-70
2022/09/28 00:15:29;;;;;;;0.40;0.40;;;;;;;9.31;86.16;99614.31;2113056;27;20054;-69
2022/09/28 00:16:35;;;;;;;0.30;0.30;;;;;;;9.33;85.42;99618.19;2114161;27;20056;-69
2022/09/28 00:17:37;;;;;;;0.40;0.40;;;;;;;9.32;85.95;99622.03;2114011;27;20052;-69
2022/09/28 00:18:40;;;;;;;0.35;0.35;;;;;;;9.35;86.13;99620.50;2114583;27;20092;-69
2022/09/28 00:19:43;;;;;;;0.40;0.40;;;;;;;9.36;85.10;99616.66;2109661;27;20074;-69
2022/09/28 00:20:46;;;;;;;0.40;0.40;;;;;;;9.36;86.01;99620.16;2108511;28;20056;-69
2022/09/28 00:21:48;;;;;;;0.50;0.50;;;;;;;9.39;86.13;99624.81;2115242;27;20419;-69
2022/09/28 00:22:51;;;;;;;0.40;0.40;;;;;;;9.40;85.97;99618.31;2113533;27;20075;-69
2022/09/28 00:25:20;;;;;;;0.40;0.40;;;;;;;9.41;86.29;99619.84;2113888;27;20478;-69
2022/09/28 00:26:23;;;;;;;0.40;0.40;;;;;;;9.45;86.28;99619.91;2108092;28;20067;-69
2022/09/28 00:27:26;;;;;;;0.50;0.50;;;;;;;9.45;86.13;99620.66;2109334;28;20051;-69
2022/09/28 00:28:28;;;;;;;0.50;0.50;;;;;;;9.47;85.72;99617.59;2113655;27;20087;-70
2022/09/28 00:29:33;;;;;;;0.40;0.40;;;;;;;9.48;86.07;99616.50;2106915;28;20525;-69
2022/09/28 00:30:35;;;;;;;0.40;0.40;;;;;;;9.47;86.09;99623.78;2107538;28;20051;-69
2022/09/28 00:31:38;;;;;;;0.40;0.40;;;;;;;9.48;85.72;99619.19;2104364;28;20059;-69
2022/09/28 00:32:41;;;;;;;0.40;0.40;;;;;;;9.48;86.15;99619.19;2104208;27;20124;-69
2022/09/28 00:33:43;;;;;;;0.40;0.40;;;;;;;9.45;85.64;99620.66;2114123;27;20096;-69
2022/09/28 00:34:47;;;;;;;0.40;0.40;;;;;;;9.49;86.03;99626.13;2114723;27;20048;-69
2022/09/28 00:35:55;;;;;;;0.40;0.40;;;;;;;9.49;85.62;99616.13;2105722;28;20064;-69
2022/09/28 00:36:58;;;;;;;0.40;0.40;;;;;;;9.50;85.94;99620.38;2097391;28;20078;-70
2022/09/28 00:38:02;;;;;;;0.50;0.50;;;;;;;9.49;85.44;99620.72;2104915;28;20102;-70
2022/09/28 00:39:07;;;;;;;0.45;0.45;;;;;;;9.50;85.37;99619.59;2107010;28;20044;-70
2022/09/28 00:40:10;;;;;;;0.40;0.40;;;;;;;9.47;85.54;99618.41;2099996;28;20687;-70
2022/09/28 00:41:14;;;;;;;0.40;0.40;;;;;;;9.48;85.10;99619.94;2104535;28;20059;-70
2022/09/28 00:42:20;;;;;;;0.40;0.40;;;;;;;9.47;84.80;99613.00;2112930;28;20168;-70
2022/09/28 00:43:23;;;;;;;0.50;0.50;;;;;;;9.47;85.54;99613.00;2100979;28;20044;-70
2022/09/28 00:44:38;;;;;;;0.50;0.50;;;;;;;9.43;85.51;99612.19;2100011;28;20481;-67
2022/09/28 00:45:41;;;;;;;0.40;0.40;;;;;;;9.42;85.48;99616.00;2113211;27;20047;-70
2022/09/28 00:46:43;;;;;;;0.40;0.40;;;;;;;9.42;85.26;99609.88;2113355;27;20052;-69
2022/09/28 00:47:50;;;;;;;0.40;0.40;;;;;;;9.42;85.02;99610.63;2114043;27;20434;-70
2022/09/28 00:48:57;;;;;;;0.40;0.40;;;;;;;9.40;86.07;99601.34;2114410;27;20059;-70
2022/09/28 00:50:03;;;;;;;0.40;0.40;;;;;;;9.40;85.75;99607.53;2104705;28;20056;-70
2022/09/28 00:51:10;;;;;;;0.40;0.40;;;;;;;9.39;85.42;99605.19;2100545;28;20048;-69
2022/09/28 00:52:19;;;;;;;0.40;0.40;;;;;;;9.38;85.84;99607.09;2092435;28;20056;-69
2022/09/28 00:53:25;;;;;;;0.50;0.50;;;;;;;9.39;85.71;99602.50;2098729;27;20430;-69
2022/09/28 00:54:27;;;;;;;0.40;0.40;;;;;;;9.40;86.10;99596.75;2104451;28;20136;-70
2022/09/28 00:55:37;;;;;;;0.35;0.35;;;;;;;9.43;87.05;99596.03;2105498;28;20527;-70
2022/09/28 00:56:45;;;;;;;0.38;0.38;;;;;;;9.43;85.95;99600.63;2113379;27;20056;-70
2022/09/28 00:57:54;;;;;;;0.40;0.40;;;;;;;9.44;86.07;99597.56;2108457;28;20052;-70
2022/09/28 00:58:58;;;;;;;0.40;0.40;;;;;;;9.46;85.67;99599.91;2109082;27;20085;-70
2022/09/28 01:00:03;;;;;;;0.40;0.40;;;;;;;9.46;86.68;99600.69;2106989;28;20260;-70
2022/09/28 01:01:05;;;;;;;0.47;0.47;;;;;;;9.45;86.20;99596.44;2106271;27;20800;-70
2022/09/28 01:02:09;;;;;;;0.40;0.40;;;;;;;9.47;85.58;99599.53;2104655;28;20048;-70
2022/09/28 01:06:41;;;;;;;0.50;0.50;;;;;;;9.40;86.83;99588.69;2049694;28;20066;-70
2022/09/28 01:07:45;;;;;;;0.40;0.40;;;;;;;9.44;86.62;99589.50;2058172;28;20054;-70
2022/09/28 01:08:51;;;;;;;0.40;0.40;;;;;;;9.46;85.72;99581.84;2051184;28;20101;-70
2022/09/28 01:09:53;;;;;;;0.50;0.50;;;;;;;9.47;85.98;99585.28;2038886;28;20606;-70
2022/09/28 01:10:57;;;;;;;0.50;0.50;;;;;;;9.47;85.25;99596.84;2051606;28;20051;-70
2022/09/28 01:12:01;;;;;;;0.40;0.40;;;;;;;9.47;85.53;99586.06;2053184;28;20094;-70
2022/09/28 01:13:04;;;;;;;0.50;0.50;;;;;;;9.46;86.51;99581.84;2053036;28;20575;-70
2022/09/28 01:14:10;;;;;;;0.50;0.50;;;;;;;9.48;86.29;99594.94;2058121;28;20465;-70
2022/09/28 01:15:14;;;;;;;0.50;0.50;;;;;;;9.47;85.70;99586.06;2051713;28;20057;-70
2022/09/28 01:16:27;;;;;;;0.50;0.50;;;;;;;9.48;86.02;99584.91;2051741;28;20146;-70
2022/09/28 01:17:42;;;;;;;0.50;0.50;;;;;;;9.46;85.08;99584.53;2047395;28;20058;-70
2022/09/28 01:18:57;;;;;;;0.50;0.50;;;;;;;9.46;85.59;99584.53;2047434;28;20051;-70
2022/09/28 01:20:38;;;;;;;0.50;0.50;;;;;;;9.41;85.90;99584.03;2038041;28;20052;-70
2022/09/28 01:21:50;;;;;;;0.50;0.50;;;;;;;9.39;86.58;99589.78;2048795;28;20054;-70
2022/09/28 01:23:18;;;;;;;0.40;0.40;;;;;;;9.38;85.74;99585.56;2051083;28;20100;-70
2022/09/28 01:24:39;;;;;;;0.50;0.50;;;;;;;9.38;86.54;99585.56;2049530;28;20146;-70
2022/09/28 01:25:49;;;;;;;0.50;0.50;;;;;;;9.39;86.73;99584.41;2040150;29;20055;-70
2022/09/28 01:27:04;;;;;;;0.40;0.40;;;;;;;9.39;86.22;99581.72;2039757;28;20648;-68
2022/09/28 01:28:10;;;;;;;0.50;0.50;;;;;;;9.40;85.93;99585.97;2051110;28;20653;-70
2022/09/28 01:29:45;;;;;;;0.40;0.40;;;;;;;9.38;85.78;99582.06;2052165;28;20058;-70
2022/09/28 01:30:55;;;;;;;0.30;0.30;;;;;;;9.38;85.11;99580.16;2051949;28;20051;-70
2022/09/28 01:32:03;;;;;;;0.40;0.40;;;;;;;9.38;85.26;99580.16;2051533;28;20490;-70
2022/09/28 01:33:11;;;;;;;0.40;0.40;;;;;;;9.35;86.11;99572.81;2052007;28;20062;-70
2022/09/28 01:34:17;;;;;;;0.50;0.50;;;;;;;9.36;86.14;99582.44;2050930;28;20085;-69
2022/09/28 01:35:25;;;;;;;0.40;0.40;;;;;;;9.36;86.39;99574.38;2044466;28;20067;-69
2022/09/28 01:36:33;;;;;;;0.40;0.40;;;;;;;9.38;87.00;99579.38;2052203;28;20073;-70
2022/09/28 01:37:43;;;;;;;0.40;0.40;;;;;;;9.37;86.50;99581.28;2051443;28;20498;-69
2022/09/28 01:38:48;;;;;;;0.47;0.47;;;;;;;9.37;86.14;99569.75;2044928;28;20122;-69
2022/09/28 01:39:53;;;;;;;0.47;0.47;;;;;;;9.37;86.05;99578.59;2051894;28;20089;-69
2022/09/28 01:40:57;;;;;;;0.50;0.50;;;;;;;9.38;86.62;99572.09;2058747;28;20046;-69
2022/09/28 01:42:05;;;;;;;0.50;0.50;;;;;;;9.37;86.34;99585.94;2052557;28;20489;-68
2022/09/28 01:43:13;;;;;;;0.45;0.45;;;;;;;9.37;85.89;99581.28;2052039;28;20516;-68
2022/09/28 01:44:18;;;;;;;0.50;0.50;;;;;;;9.37;86.56;99573.22;2052753;28;20042;-69
2022/09/28 01:45:27;;;;;;;0.50;0.50;;;;;;;9.37;86.72;99584.00;2053636;28;20063;-69
2022/09/28 01:46:36;;;;;;;0.50;0.50;;;;;;;9.39;85.91;99584.41;2052420;28;20054;-69
2022/09/28 01:47:40;;;;;;;0.50;0.50;;;;;;;9.38;86.74;99584.78;2053814;28;20134;-69
2022/09/28 01:48:49;;;;;;;0.40;0.40;;;;;;;9.40;86.06;99591.38;2053272;28;20054;-69
2022/09/28 01:50:00;;;;;;;0.40;0.40;;;;;;;9.40;86.70;99590.59;2058280;28;20835;-70
2022/09/28 01:51:23;;;;;;;0.40;0.40;;;;;;;9.38;86.97;99592.84;2052282;28;20573;-70
2022/09/28 01:52:31;;;;;;;0.40;0.40;;;;;;;9.37;86.56;99589.38;2052063;28;20055;-70
2022/09/28 01:53:39;;;;;;;0.60;0.60;;;;;;;9.36;86.13;99590.53;2059483;28;20074;-70
2022/09/28 01:54:50;;;;;;;0.40;0.40;;;;;;;9.35;85.30;99588.97;2051376;28;20047;-70
2022/09/28 01:55:58;;;;;;;0.50;0.50;;;;;;;9.33;86.35;99595.84;2037362;29;20074;-70
2022/09/28 01:57:08;;;;;;;0.50;0.50;;;;;;;9.29;86.19;99589.66;2037796;28;20644;-70
2022/09/28 01:58:15;;;;;;;0.50;0.50;;;;;;;9.30;85.99;99596.56;2043973;28;20424;-70
2022/09/28 01:59:20;;;;;;;0.50;0.50;;;;;;;9.30;86.72;99596.56;2052078;28;20050;-70
2022/09/28 02:00:24;;;;;;;0.43;0.43;;;;;;;9.29;87.06;99595.81;2051227;28;20062;-70
2022/09/28 02:01:30;;;;;;;0.50;0.50;;;;;;;9.32;86.23;99603.16;2051235;28;20106;-70
2022/09/28 02:02:37;;;;;;;0.40;0.40;;;;;;;9.31;86.40;99598.91;2052218;28;20058;-70
2022/09/28 02:03:47;;;;;;;0.50;0.50;;;;;;;9.31;86.08;99598.91;2053596;28;20051;-70
2022/09/28 02:04:56;;;;;;;0.40;0.40;;;;;;;9.29;86.50;99598.50;2053677;28;20054;-69
2022/09/28 02:06:03;;;;;;;0.40;0.40;;;;;;;9.28;86.16;99591.56;2045696;28;20048;-69
2022/09/28 02:07:12;;;;;;;0.40;0.40;;;;;;;9.30;86.40;99593.88;2045530;29;20075;-70
2022/09/28 02:08:20;;;;;;;0.40;0.40;;;;;;;9.28;86.48;99582.69;2037605;29;20047;-69
2022/09/28 02:09:32;;;;;;;0.40;0.40;;;;;;;9.29;86.28;99592.34;2045264;29;20066;-69
2022/09/28 02:10:40;;;;;;;0.40;0.40;;;;;;;9.27;86.09;99600.00;2044429;28;20083;-69
2022/09/28 02:11:50;;;;;;;0.50;0.50;;;;;;;9.24;86.26;99590.72;2045176;28;20047;-69
2022/09/28 02:12:57;;;;;;;0.40;0.40;;;;;;;9.21;86.41;99583.38;2045378;28;20475;-70
2022/09/28 02:14:04;;;;;;;0.40;0.40;;;;;;;9.20;86.33;99581.81;2046153;28;22085;-69
2022/09/28 02:15:11;;;;;;;0.40;0.40;;;;;;;9.21;86.33;99588.78;2043580;28;20075;-70
2022/09/28 02:16:22;;;;;;;0.40;0.40;;;;;;;9.19;86.02;99595.63;2044028;28;20422;-69
2022/09/28 02:17:24;;;;;;;0.50;0.50;;;;;;;9.17;86.01;99593.31;2051868;28;20055;-69
2022/09/28 02:18:27;;;;;;;0.47;0.47;;;;;;;9.15;86.54;99592.13;2045648;28;20055;-71
2022/09/28 02:19:31;;;;;;;0.45;0.45;;;;;;;9.15;85.82;99590.19;2045325;28;20051;-69
2022/09/28 02:20:36;;;;;;;0.40;0.40;;;;;;;9.12;86.90;99588.22;2034569;29;20150;-70
2022/09/28 02:21:48;;;;;;;0.40;0.40;;;;;;;9.10;86.66;99593.22;2043412;29;20708;-70
2022/09/28 02:22:58;;;;;;;0.40;0.40;;;;;;;9.06;87.46;99589.66;2045374;29;20043;-70
2022/09/28 02:24:09;;;;;;;0.40;0.40;;;;;;;9.03;87.58;99583.09;2045225;28;20070;-70
2022/09/28 02:25:23;;;;;;;0.40;0.40;;;;;;;9.00;87.72;99588.41;2053370;28;20098;-70
2022/09/28 02:26:30;;;;;;;0.40;0.40;;;;;;;9.00;87.29;99591.91;2045897;28;20098;-70
2022/09/28 02:27:37;;;;;;;0.40;0.40;;;;;;;9.02;87.58;99586.91;2037953;29;20044;-70
2022/09/28 02:28:42;;;;;;;0.40;0.40;;;;;;;9.03;87.37;99590.38;2030305;29;20063;-70
2022/09/28 02:29:45;;;;;;;0.40;0.40;;;;;;;9.05;87.60;99588.13;2036945;29;20115;-70
2022/09/28 02:30:47;;;;;;;0.40;0.40;;;;;;;9.05;87.41;99588.88;2047378;28;20079;-70
2022/09/28 02:31:51;;;;;;;0.50;0.50;;;;;;;9.08;87.87;99592.78;2046228;29;20141;-70
2022/09/28 02:32:56;;;;;;;0.40;0.40;;;;;;;9.09;88.04;99588.94;2039335;29;20056;-70
2022/09/28 02:34:00;;;;;;;0.43;0.43;;;;;;;9.09;86.99;99595.13;2045719;28;20058;-70
2022/09/28 02:35:02;;;;;;;0.45;0.45;;;;;;;9.08;87.14;99590.09;2053484;28;20129;-70
2022/09/28 02:36:06;;;;;;;0.40;0.40;;;;;;;9.12;86.88;99587.47;2054879;28;20054;-70
2022/09/28 02:37:12;;;;;;;0.40;0.40;;;;;;;9.10;87.90;99587.81;2045842;29;20051;-70
2022/09/28 02:38:15;;;;;;;0.40;0.40;;;;;;;9.12;87.34;99593.59;2037132;29;20138;-70
2022/09/28 02:39:18;;;;;;;0.40;0.40;;;;;;;9.10;87.74;99593.97;2044819;29;20051;-70
2022/09/28 02:40:25;;;;;;;0.40;0.40;;;;;;;9.13;87.35;99586.31;2046814;28;20432;-70
2022/09/28 02:41:39;;;;;;;0.43;0.43;;;;;;;9.13;86.89;99587.09;2046718;28;20176;-70
2022/09/28 02:42:52;;;;;;;0.43;0.43;;;;;;;9.12;87.90;99588.22;2040624;29;20056;-70
2022/09/28 02:44:05;;;;;;;0.38;0.38;;;;;;;9.12;87.41;99585.53;2040484;29;20058;-70
2022/09/28 02:45:20;;;;;;;0.40;0.40;;;;;;;9.13;87.11;99590.56;2038600;29;20052;-70
2022/09/28 02:46:31;;;;;;;0.50;0.50;;;;;;;9.13;87.36;99587.84;2047236;28;20051;-70
2022/09/28 02:48:00;;;;;;;0.40;0.40;;;;;;;9.08;87.31;99587.41;2045495;29;20055;-70
2022/09/28 02:49:11;;;;;;;0.40;0.40;;;;;;;9.08;87.57;99590.09;2045299;28;20055;-70
2022/09/28 02:50:39;;;;;;;0.40;0.40;;;;;;;9.06;87.17;99592.34;2044944;29;20059;-72
2022/09/28 02:51:56;;;;;;;0.50;0.50;;;;;;;9.06;87.42;99592.34;2039069;28;20055;-72
2022/09/28 02:53:24;;;;;;;0.50;0.50;;;;;;;9.04;86.79;99589.25;2047243;28;20573;-71
2022/09/28 02:54:42;;;;;;;0.50;0.50;;;;;;;9.00;87.32;99591.09;2053937;28;20093;-71
2022/09/28 02:55:58;;;;;;;0.50;0.50;;;;;;;9.00;86.94;99583.81;2051902;28;20445;-71
2022/09/28 02:57:16;;;;;;;0.50;0.50;;;;;;;9.00;88.13;99588.41;2054821;28;20512;-72
2022/09/28 02:58:32;;;;;;;0.50;0.50;;;;;;;9.01;87.58;99584.56;2052600;28;20059;-72
2022/09/28 02:59:49;;;;;;;0.40;0.40;;;;;;;8.99;87.00;99586.88;2047523;29;20059;-71
2022/09/28 03:00:58;;;;;;;0.50;0.50;;;;;;;9.02;88.22;99586.16;2054430;28;20181;-71
2022/09/28 03:02:10;;;;;;;0.50;0.50;;;;;;;9.03;87.13;99585.00;2045527;28;21840;-71
2022/09/28 03:03:20;;;;;;;0.50;0.50;;;;;;;9.02;87.95;99584.22;2045829;28;20489;-71
2022/09/28 03:04:35;;;;;;;0.40;0.40;;;;;;;9.03;87.73;99580.41;2046398;28;20082;-71
2022/09/28 03:05:51;;;;;;;0.43;0.43;;;;;;;9.02;87.45;99586.91;2040706;29;20089;-71
2022/09/28 03:07:00;;;;;;;0.40;0.40;;;;;;;9.00;87.73;99589.22;2046273;29;20181;-70
2022/09/28 03:08:07;;;;;;;0.50;0.50;;;;;;;9.00;87.89;99588.41;2038147;29;20055;-71
2022/09/28 03:09:17;;;;;;;0.50;0.50;;;;;;;8.98;87.97;99582.59;2037582;29;20529;-71
2022/09/28 03:10:29;;;;;;;0.40;0.40;;;;;;;8.95;87.73;99586.03;2038589;29;20056;-71
2022/09/28 03:11:37;;;;;;;0.50;0.50;;;;;;;8.94;88.67;99584.47;2046135;29;20051;-71
2022/09/28 03:12:41;;;;;;;0.40;0.40;;;;;;;8.96;88.91;99587.56;2054824;28;20043;-72
2022/09/28 03:13:44;;;;;;;0.40;0.40;;;;;;;8.96;88.14;99580.28;2046585;28;20053;-71
2022/09/28 03:15:05;;;;;;;0.40;0.40;;;;;;;8.98;88.37;99588.00;2039631;29;20090;-71
2022/09/28 03:16:09;;;;;;;0.40;0.40;;;;;;;8.94;88.09;99584.47;2035427;29;20144;-71
2022/09/28 03:17:12;;;;;;;0.50;0.50;;;;;;;8.93;87.95;99583.69;2040672;29;20050;-71
2022/09/28 03:18:14;;;;;;;0.47;0.47;;;;;;;8.92;88.33;99581.38;2038651;29;20097;-71
2022/09/28 03:19:23;;;;;;;0.43;0.43;;;;;;;8.91;88.18;99585.97;2046721;28;20554;-71
2022/09/28 03:20:27;;;;;;;0.50;0.50;;;;;;;8.88;88.51;99591.28;2053982;28;20055;-71
2022/09/28 03:21:30;;;;;;;0.50;0.50;;;;;;;8.87;89.18;99582.44;2046400;29;20055;-71
2022/09/28 03:22:33;;;;;;;0.50;0.50;;;;;;;8.87;88.55;99592.41;2046483;29;20083;-71
2022/09/28 03:23:36;;;;;;;0.40;0.40;;;;;;;8.87;88.51;99589.72;2046247;28;20580;-71
2022/09/28 03:24:38;;;;;;;0.50;0.50;;;;;;;8.85;88.90;99586.63;2037412;29;20363;-71
2022/09/28 03:25:41;;;;;;;0.50;0.50;;;;;;;8.82;89.50;99584.66;2045141;28;20101;-71
2022/09/28 03:26:43;;;;;;;0.45;0.45;;;;;;;8.79;88.38;99591.53;2045084;29;20055;-73
2022/09/28 03:27:47;;;;;;;0.50;0.50;;;;;;;8.77;88.47;99583.03;2045534;28;20114;-71
2022/09/28 03:28:50;;;;;;;0.50;0.50;;;;;;;8.76;89.01;99580.69;2046256;28;20082;-72
2022/09/28 03:29:59;;;;;;;0.40;0.40;;;;;;;8.74;89.62;99586.44;2052543;28;20132;-72
2022/09/28 03:31:01;;;;;;;0.50;0.50;;;;;;;8.74;89.39;99575.69;2046880;28;20055;-72
2022/09/28 03:32:04;;;;;;;0.45;0.45;;;;;;;8.74;89.48;99577.59;2053362;28;20046;-71
2022/09/28 03:33:06;;;;;;;0.50;0.50;;;;;;;8.74;89.19;99581.06;2053863;28;20096;-71
2022/09/28 03:34:09;;;;;;;0.50;0.50;;;;;;;8.73;89.19;99578.72;2054378;28;20058;-71
2022/09/28 03:35:11;;;;;;;0.50;0.50;;;;;;;8.72;89.63;99585.25;2045179;28;20158;-71
2022/09/28 03:36:14;;;;;;;0.40;0.40;;;;;;;8.71;89.71;99578.31;2044768;28;20134;-71
2022/09/28 03:37:16;;;;;;;0.50;0.50;;;;;;;8.71;89.89;99575.59;2053311;28;20042;-71
2022/09/28 03:38:20;;;;;;;0.50;0.50;;;;;;;8.71;89.64;99581.00;2044713;29;20439;-71
2022/09/28 03:39:22;;;;;;;0.40;0.40;;;;;;;8.69;89.46;99577.88;2045215;28;20098;-71
2022/09/28 03:40:25;;;;;;;0.52;0.52;;;;;;;8.69;89.62;99577.88;2053671;28;20058;-71
2022/09/28 03:41:28;;;;;;;0.50;0.50;;;;;;;8.70;89.78;99576.75;2046655;29;20102;-70
2022/09/28 03:42:30;;;;;;;0.50;0.50;;;;;;;8.69;90.16;99575.97;2046675;29;20086;-71
2022/09/28 03:43:32;;;;;;;0.40;0.40;;;;;;;8.67;89.79;99580.16;2038437;29;20055;-70
2022/09/28 03:44:37;;;;;;;0.40;0.40;;;;;;;8.68;89.97;99576.34;2038811;29;20056;-70
2022/09/28 03:45:40;;;;;;;0.50;0.50;;;;;;;8.68;90.21;99576.34;2037120;29;20059;-70
2022/09/28 03:46:43;;;;;;;0.40;0.40;;;;;;;8.67;90.19;99574.78;2044373;28;20066;-70
2022/09/28 03:47:47;;;;;;;0.40;0.40;;;;;;;8.66;89.29;99578.59;2045927;29;20062;-70
2022/09/28 03:48:51;;;;;;;0.50;0.50;;;;;;;8.65;90.05;99577.03;2038486;29;20055;-70
2022/09/28 03:49:53;;;;;;;0.45;0.45;;;;;;;8.65;89.65;99566.28;2046011;28;20062;-70
2022/09/28 03:50:57;;;;;;;0.50;0.50;;;;;;;8.63;89.53;99563.97;2046117;29;20055;-70
2022/09/28 03:52:00;;;;;;;0.50;0.50;;;;;;;8.64;89.93;99570.88;2046272;29;20051;-70
2022/09/28 03:53:04;;;;;;;0.43;0.43;;;;;;;8.64;90.21;99572.81;2045788;28;20553;-70
2022/09/28 03:54:06;;;;;;;0.50;0.50;;;;;;;8.62;90.45;99569.69;2046407;28;20467;-70
2022/09/28 03:55:10;;;;;;;0.50;0.50;;;;;;;8.63;89.85;99572.03;2045019;29;20048;-70
2022/09/28 03:56:14;;;;;;;0.50;0.50;;;;;;;8.64;90.26;99572.81;2044556;28;20051;-70
2022/09/28 03:57:17;;;;;;;0.40;0.40;;;;;;;8.64;90.22;99570.13;2046055;29;20055;-70
2022/09/28 03:58:19;;;;;;;0.50;0.50;;;;;;;8.65;90.56;99571.66;2037213;29;20051;-70
2022/09/28 03:59:23;;;;;;;0.47;0.47;;;;;;;8.63;90.12;99569.34;2045319;28;20085;-70
2022/09/28 04:00:25;;;;;;;0.40;0.40;;;;;;;8.65;90.10;99574.34;2053708;28;20054;-69
2022/09/28 04:01:29;;;;;;;0.40;0.40;;;;;;;8.65;89.98;99575.16;2046597;28;20059;-71
2022/09/28 04:02:33;;;;;;;0.40;0.40;;;;;;;8.64;89.52;99573.56;2046173;28;20056;-70
2022/09/28 04:03:38;;;;;;;0.40;0.40;;;;;;;8.63;90.55;99573.94;2031192;29;20052;-70
2022/09/28 04:04:41;;;;;;;0.40;0.40;;;;;;;8.63;90.10;99574.72;2038492;29;20056;-70
2022/09/28 04:05:51;;;;;;;0.50;0.50;;;;;;;8.64;90.43;99575.50;2046094;28;20101;-69
2022/09/28 04:06:53;;;;;;;0.50;0.50;;;;;;;8.64;90.17;99575.50;2053074;28;20460;-69
2022/09/28 04:07:57;;;;;;;0.40;0.40;;;;;;;8.67;89.99;99580.91;2036710;29;20052;-69
2022/09/28 04:08:59;;;;;;;0.40;0.40;;;;;;;8.71;90.07;99583.69;2044184;29;20054;-69
2022/09/28 04:10:02;;;;;;;0.40;0.40;;;;;;;8.72;89.87;99582.56;2046733;28;20751;-69
2022/09/28 04:11:05;;;;;;;0.43;0.43;;;;;;;8.75;90.44;99577.22;2045643;28;20593;-69
2022/09/28 04:12:09;;;;;;;0.50;0.50;;;;;;;8.78;89.99;99584.56;2039374;29;20074;-69
2022/09/28 04:13:11;;;;;;;0.50;0.50;;;;;;;8.80;89.62;99584.25;2047195;28;20047;-69
2022/09/28 04:14:15;;;;;;;0.40;0.40;;;;;;;8.79;89.48;99579.97;2036667;29;20521;-70
2022/09/28 04:15:18;;;;;;;0.50;0.50;;;;;;;8.80;90.31;99584.25;2043837;28;20514;-69
2022/09/28 04:16:21;;;;;;;0.50;0.50;;;;;;;8.79;89.92;99582.66;2044676;29;20146;-69
2022/09/28 04:17:41;;;;;;;0.57;0.57;;;;;;;8.75;90.11;99582.59;2045099;28;20060;-70
2022/09/28 04:18:55;;;;;;;0.55;0.55;;;;;;;8.73;89.82;99584.91;2039131;29;20054;-69
2022/09/28 04:20:14;;;;;;;0.60;0.60;;;;;;;8.71;89.60;99589.06;2044996;28;20051;-69
2022/09/28 04:21:34;;;;;;;0.55;0.55;;;;;;;8.70;89.84;99584.81;2046813;29;20139;-69
2022/09/28 04:22:43;;;;;;;0.50;0.50;;;;;;;8.70;89.82;99582.13;2044450;29;20059;-69
2022/09/28 04:23:46;;;;;;;0.50;0.50;;;;;;;8.71;89.10;99583.69;2044762;28;20059;-70
2022/09/28 04:24:49;;;;;;;0.50;0.50;;;;;;;8.70;89.01;99579.44;2044449;28;20499;-69
2022/09/28 04:25:52;;;;;;;0.50;0.50;;;;;;;8.69;89.30;99583.25;2044441;29;20051;-69
2022/09/28 04:29:14;;;;;;;0.50;0.50;;;;;;;8.69;89.15;99583.25;2036994;29;20059;-70
2022/09/28 04:29:41;;;;;;;0.50;0.50;;;;;;;8.63;90.00;99579.31;2036576;29;20160;-70
2022/09/28 04:30:45;;;;;;;0.50;0.50;;;;;;;8.65;89.80;99585.13;2038426;28;20609;-70
2022/09/28 04:31:51;;;;;;;0.50;0.50;;;;;;;8.67;89.69;99585.53;2047510;28;20114;-70
2022/09/28 04:32:58;;;;;;;0.50;0.50;;;;;;;8.65;90.14;99593.19;2046298;28;20083;-70
2022/09/28 04:34:04;;;;;;;0.50;0.50;;;;;;;8.65;89.83;99593.19;2036806;29;20952;-70
2022/09/28 04:35:09;;;;;;;0.50;0.50;;;;;;;8.65;89.62;99593.97;2036572;29;20056;-70
2022/09/28 04:36:13;;;;;;;0.60;0.60;;;;;;;8.65;89.68;99593.19;2053437;28;20605;-70
2022/09/28 04:37:16;;;;;;;0.50;0.50;;;;;;;8.65;89.77;99590.50;2053216;28;20155;-70
2022/09/28 04:38:18;;;;;;;0.60;0.60;;;;;;;8.65;89.60;99593.97;2044599;28;20051;-70
2022/09/28 04:39:42;;;;;;;0.40;0.40;;;;;;;8.63;89.62;99595.44;2036854;29;20134;-70
2022/09/28 04:40:51;;;;;;;0.50;0.50;;;;;;;8.63;89.53;99593.56;2047033;28;20051;-70
2022/09/28 04:41:55;;;;;;;0.50;0.50;;;;;;;8.64;89.90;99595.09;2053338;28;20141;-70
2022/09/28 04:42:57;;;;;;;0.50;0.50;;;;;;;8.65;89.39;99598.56;2037982;29;20138;-70
2022/09/28 04:44:01;;;;;;;0.50;0.50;;;;;;;8.67;90.26;99597.06;2036417;29;20051;-70
2022/09/28 04:45:05;;;;;;;0.50;0.50;;;;;;;8.67;90.06;99594.38;2045182;28;20101;-69
2022/09/28 04:46:12;;;;;;;0.50;0.50;;;;;;;8.69;90.61;99596.72;2052537;28;20525;-70
2022/09/28 04:47:22;;;;;;;0.40;0.40;;;;;;;8.69;90.27;99594.00;2054208;28;20109;-70
2022/09/28 04:48:44;;;;;;;0.50;0.50;;;;;;;8.70;90.02;99587.53;2050656;28;20043;-71
2022/09/28 04:50:07;;;;;;;0.50;0.50;;;;;;;8.72;89.82;99598.72;2045849;29;20478;-70
2022/09/28 04:51:31;;;;;;;0.40;0.40;;;;;;;8.73;90.07;99595.66;2045924;28;20089;-70
2022/09/28 04:52:35;;;;;;;0.40;0.40;;;;;;;8.77;90.78;99598.38;2053574;28;20509;-70
2022/09/28 04:53:38;;;;;;;0.40;0.40;;;;;;;8.79;90.20;99598.81;2044860;29;20058;-70
2022/09/28 04:54:40;;;;;;;0.50;0.50;;;;;;;8.81;90.08;99591.16;2037009;29;20097;-70
2022/09/28 04:55:44;;;;;;;0.45;0.45;;;;;;;8.83;90.45;99594.28;2045917;28;20055;-70
2022/09/28 04:56:46;;;;;;;0.40;0.40;;;;;;;8.82;89.79;99596.19;2053744;28;20046;-70
2022/09/28 04:57:49;;;;;;;0.50;0.50;;;;;;;8.83;89.09;99595.03;2053398;28;20118;-70
2022/09/28 04:58:52;;;;;;;0.52;0.52;;;;;;;8.84;89.86;99595.84;2046021;28;20130;-69
2022/09/28 04:59:56;;;;;;;0.50;0.50;;;;;;;8.83;88.83;99594.28;2053702;28;20043;-69
2022/09/28 05:01:00;;;;;;;0.50;0.50;;;;;;;8.83;89.75;99595.03;2045404;29;20085;-69
2022/09/28 05:02:25;;;;;;;0.50;0.50;;;;;;;8.79;89.45;99596.13;2045627;28;20066;-70
2022/09/28 05:03:59;;;;;;;0.50;0.50;;;;;;;8.77;88.70;99595.69;2045482;28;20075;-70
2022/09/28 05:05:11;;;;;;;0.50;0.50;;;;;;;8.77;89.24;99601.09;2044989;28;20134;-70
2022/09/28 05:06:40;;;;;;;0.50;0.50;;;;;;;8.76;89.22;99599.53;2053288;28;20083;-69
2022/09/28 05:07:44;;;;;;;0.50;0.50;;;;;;;8.78;89.62;99605.34;2045529;29;20149;-69
2022/09/28 05:08:48;;;;;;;0.40;0.40;;;;;;;8.77;89.14;99603.78;2036635;29;20860;-70
2022/09/28 05:09:50;;;;;;;0.50;0.50;;;;;;;8.76;89.79;99594.16;2044880;29;20055;-69
2022/09/28 05:10:58;;;;;;;0.40;0.40;;;;;;;8.79;89.75;99604.19;2043904;28;20093;-69
2022/09/28 05:12:00;;;;;;;0.50;0.50;;;;;;;8.80;89.36;99601.16;2044973;28;20437;-69
2022/09/28 05:13:04;;;;;;;0.40;0.40;;;;;;;8.82;89.41;99600.78;2053407;28;20061;-70
2022/09/28 05:14:07;;;;;;;0.50;0.50;;;;;;;8.84;90.26;99599.31;2045323;29;20050;-71
2022/09/28 05:15:10;;;;;;;0.50;0.50;;;;;;;8.86;89.65;99605.09;2045426;29;20039;-70
2022/09/28 05:16:14;;;;;;;0.60;0.60;;;;;;;8.87;88.88;99603.97;2045286;29;20055;-70
2022/09/28 05:17:47;;;;;;;0.50;0.50;;;;;;;8.85;89.82;99597.38;2045350;29;20094;-70
2022/09/28 05:19:17;;;;;;;0.50;0.50;;;;;;;8.85;89.29;99598.16;2045182;28;20051;-71
2022/09/28 05:20:21;;;;;;;0.50;0.50;;;;;;;8.89;89.34;99603.63;2053238;28;20093;-71
2022/09/28 05:21:24;;;;;;;0.52;0.52;;;;;;;8.90;89.54;99603.25;2052594;28;20572;-70
2022/09/28 05:22:27;;;;;;;0.50;0.50;;;;;;;8.92;89.62;99602.91;2046100;29;20423;-71
2022/09/28 05:23:30;;;;;;;0.50;0.50;;;;;;;8.93;88.84;99607.13;2045297;28;20074;-70
2022/09/28 05:24:36;;;;;;;0.40;0.40;;;;;;;8.92;90.13;99606.38;2040286;28;20089;-70
2022/09/28 05:25:39;;;;;;;0.40;0.40;;;;;;;8.95;88.68;99602.16;2047346;28;20047;-70
2022/09/28 05:27:00;;;;;;;0.50;0.50;;;;;;;8.91;89.77;99604.78;2049908;28;20506;-70